KSAF/SAF METAR and TAF weather

Enter ICAO airport designator
Station Type Date Time Source
KSAF METAR 2020/07/13 13:53 UTC NOAA

KSAF 131353Z 18005KT 10SM BKN120 27/06 A3020 RMK AO2 SLP094 T02670056


Station Type Date Time Source
KSAF Decoded METAR 2020/07/13 13:53 UTC NOAA

SANTA FE COUNTY MUNICIPAL, NM, United States (KSAF) 35-37N 106-05W 1930M
Jul 13, 2020 - 09:53 AM EDT / 2020.07.13 1353 UTC
Wind: from the S (180 degrees) at 6 MPH (5 KT):0
Visibility: 10 mile(s):0
Sky conditions: mostly cloudy
Temperature: 80.1 F (26.7 C)
Dew Point: 42.1 F (5.6 C)
Relative Humidity: 25%
Pressure (altimeter): 30.2 in. Hg (1022 hPa)
ob: KSAF 131353Z 18005KT 10SM BKN120 27/06 A3020 RMK AO2 SLP094 T02670056
cycle: 14

Station Type Date Time Source
KSAF TAF 2020/07/13 12:36 UTC NOAA

TAF KSAF 131135Z 1312/1412 VRB05KT P6SM BKN120
FM131900 25012G20KT P6SM SCT090
FM132100 30014G24KT P6SM VCTS BKN100CB
FM140000 34012KT P6SM VCSH BKN090
FM140500 VRB06KT P6SM BKN100

Example: see airport list